sensor_id;sensor_type;location;lat;lon;timestamp;temperature;humidity
64501;DHT22;50874;24.150;-110.320;2023-03-03T00:00:04;18.90;99.90
64501;DHT22;50874;24.150;-110.320;2023-03-03T00:02:31;18.70;99.90
64501;DHT22;50874;24.150;-110.320;2023-03-03T00:04:57;19.00;99.90
64501;DHT22;50874;24.150;-110.320;2023-03-03T00:07:24;18.90;99.90
64501;DHT22;50874;24.150;-110.320;2023-03-03T00:09:50;18.90;99.90
64501;DHT22;50874;24.150;-110.320;2023-03-03T00:12:28;18.60;99.90
64501;DHT22;50874;24.150;-110.320;2023-03-03T00:14:55;18.70;99.90
64501;DHT22;50874;24.150;-110.320;2023-03-03T00:17:27;18.70;99.90
64501;DHT22;50874;24.150;-110.320;2023-03-03T00:19:54;18.60;99.90
64501;DHT22;50874;24.150;-110.320;2023-03-03T00:22:30;18.80;99.90
64501;DHT22;50874;24.150;-110.320;2023-03-03T00:27:46;18.70;99.90
64501;DHT22;50874;24.150;-110.320;2023-03-03T00:30:26;18.50;99.90
64501;DHT22;50874;24.150;-110.320;2023-03-03T00:32:54;18.50;99.90
64501;DHT22;50874;24.150;-110.320;2023-03-03T00:38:18;18.60;99.90
64501;DHT22;50874;24.150;-110.320;2023-03-03T00:40:46;18.70;99.90
64501;DHT22;50874;24.150;-110.320;2023-03-03T00:43:24;18.70;99.90
64501;DHT22;50874;24.150;-110.320;2023-03-03T00:45:54;18.20;99.90
64501;DHT22;50874;24.150;-110.320;2023-03-03T00:50:57;18.00;99.90
64501;DHT22;50874;24.150;-110.320;2023-03-03T00:53:28;17.70;99.90
64501;DHT22;50874;24.150;-110.320;2023-03-03T00:55:55;17.70;99.90
64501;DHT22;50874;24.150;-110.320;2023-03-03T00:58:22;17.60;99.90
64501;DHT22;50874;24.150;-110.320;2023-03-03T01:00:51;17.40;99.90
64501;DHT22;50874;24.150;-110.320;2023-03-03T01:03:21;17.50;99.90
64501;DHT22;50874;24.150;-110.320;2023-03-03T01:05:48;17.50;99.90
64501;DHT22;50874;24.150;-110.320;2023-03-03T01:08:15;17.60;99.90
64501;DHT22;50874;24.150;-110.320;2023-03-03T01:10:49;17.50;99.90
64501;DHT22;50874;24.150;-110.320;2023-03-03T01:13:25;17.50;99.90
64501;DHT22;50874;24.150;-110.320;2023-03-03T01:15:52;17.30;99.90
64501;DHT22;50874;24.150;-110.320;2023-03-03T01:18:19;17.30;99.90
64501;DHT22;50874;24.150;-110.320;2023-03-03T01:20:46;17.20;99.90
64501;DHT22;50874;24.150;-110.320;2023-03-03T01:23:13;17.20;99.90
64501;DHT22;50874;24.150;-110.320;2023-03-03T01:25:39;17.10;99.90
64501;DHT22;50874;24.150;-110.320;2023-03-03T01:28:06;17.10;99.90
64501;DHT22;50874;24.150;-110.320;2023-03-03T01:30:33;17.10;99.90
64501;DHT22;50874;24.150;-110.320;2023-03-03T01:33:00;16.80;99.90
64501;DHT22;50874;24.150;-110.320;2023-03-03T01:35:33;16.70;99.90
64501;DHT22;50874;24.150;-110.320;2023-03-03T01:38:01;16.70;99.90
64501;DHT22;50874;24.150;-110.320;2023-03-03T01:40:29;16.50;99.90
64501;DHT22;50874;24.150;-110.320;2023-03-03T01:42:59;16.50;99.90
64501;DHT22;50874;24.150;-110.320;2023-03-03T01:48:27;16.50;99.90
64501;DHT22;50874;24.150;-110.320;2023-03-03T01:51:00;16.50;99.90
64501;DHT22;50874;24.150;-110.320;2023-03-03T01:53:51;16.50;99.90
64501;DHT22;50874;24.150;-110.320;2023-03-03T01:56:16;16.40;99.90
64501;DHT22;50874;24.150;-110.320;2023-03-03T01:58:48;16.30;99.90
64501;DHT22;50874;24.150;-110.320;2023-03-03T02:01:20;16.30;99.90
64501;DHT22;50874;24.150;-110.320;2023-03-03T02:03:47;16.20;99.90
64501;DHT22;50874;24.150;-110.320;2023-03-03T02:06:17;16.20;99.90
64501;DHT22;50874;24.150;-110.320;2023-03-03T02:11:46;16.20;99.90
64501;DHT22;50874;24.150;-110.320;2023-03-03T02:14:16;16.20;99.90
64501;DHT22;50874;24.150;-110.320;2023-03-03T02:16:43;16.20;99.90
64501;DHT22;50874;24.150;-110.320;2023-03-03T02:19:21;16.20;99.90
64501;DHT22;50874;24.150;-110.320;2023-03-03T02:21:49;16.20;99.90
64501;DHT22;50874;24.150;-110.320;2023-03-03T02:24:42;16.20;99.90
64501;DHT22;50874;24.150;-110.320;2023-03-03T02:27:10;16.30;99.90
64501;DHT22;50874;24.150;-110.320;2023-03-03T02:29:36;16.20;99.90
64501;DHT22;50874;24.150;-110.320;2023-03-03T02:32:03;16.20;99.90
64501;DHT22;50874;24.150;-110.320;2023-03-03T02:34:29;16.10;99.90
64501;DHT22;50874;24.150;-110.320;2023-03-03T02:36:56;16.10;99.90
64501;DHT22;50874;24.150;-110.320;2023-03-03T02:39:26;16.10;99.90
64501;DHT22;50874;24.150;-110.320;2023-03-03T02:42:23;16.00;99.90
64501;DHT22;50874;24.150;-110.320;2023-03-03T02:44:50;16.00;99.90
64501;DHT22;50874;24.150;-110.320;2023-03-03T02:47:17;16.00;99.90
64501;DHT22;50874;24.150;-110.320;2023-03-03T02:49:43;15.90;99.90
64501;DHT22;50874;24.150;-110.320;2023-03-03T02:52:11;15.90;99.90
64501;DHT22;50874;24.150;-110.320;2023-03-03T02:54:40;15.80;99.90
64501;DHT22;50874;24.150;-110.320;2023-03-03T02:57:06;15.70;99.90
64501;DHT22;50874;24.150;-110.320;2023-03-03T02:59:33;15.70;99.90
64501;DHT22;50874;24.150;-110.320;2023-03-03T03:02:00;15.70;99.90
64501;DHT22;50874;24.150;-110.320;2023-03-03T03:04:27;15.70;99.90
64501;DHT22;50874;24.150;-110.320;2023-03-03T03:06:54;15.70;99.90
64501;DHT22;50874;24.150;-110.320;2023-03-03T03:09:22;15.70;99.90
64501;DHT22;50874;24.150;-110.320;2023-03-03T03:11:50;15.70;99.90
64501;DHT22;50874;24.150;-110.320;2023-03-03T03:14:16;15.60;99.90
64501;DHT22;50874;24.150;-110.320;2023-03-03T03:16:43;15.60;99.90
64501;DHT22;50874;24.150;-110.320;2023-03-03T03:19:09;15.60;99.90
64501;DHT22;50874;24.150;-110.320;2023-03-03T03:21:36;15.60;99.90
64501;DHT22;50874;24.150;-110.320;2023-03-03T03:24:02;15.60;99.90
64501;DHT22;50874;24.150;-110.320;2023-03-03T03:26:28;15.60;99.90
64501;DHT22;50874;24.150;-110.320;2023-03-03T03:28:55;15.60;99.90
64501;DHT22;50874;24.150;-110.320;2023-03-03T03:31:21;15.60;99.90
64501;DHT22;50874;24.150;-110.320;2023-03-03T03:33:48;15.60;99.90
64501;DHT22;50874;24.150;-110.320;2023-03-03T03:36:15;15.60;99.90
64501;DHT22;50874;24.150;-110.320;2023-03-03T03:38:41;15.60;99.90
64501;DHT22;50874;24.150;-110.320;2023-03-03T03:41:08;15.60;99.90
64501;DHT22;50874;24.150;-110.320;2023-03-03T03:43:35;15.60;99.90
64501;DHT22;50874;24.150;-110.320;2023-03-03T03:46:01;15.50;99.90
64501;DHT22;50874;24.150;-110.320;2023-03-03T03:48:28;15.50;99.90
64501;DHT22;50874;24.150;-110.320;2023-03-03T03:50:54;15.40;99.90
64501;DHT22;50874;24.150;-110.320;2023-03-03T03:53:21;15.40;99.90
64501;DHT22;50874;24.150;-110.320;2023-03-03T03:55:47;15.50;99.90
64501;DHT22;50874;24.150;-110.320;2023-03-03T03:58:14;15.40;99.90
64501;DHT22;50874;24.150;-110.320;2023-03-03T04:00:42;15.40;99.90
64501;DHT22;50874;24.150;-110.320;2023-03-03T04:03:09;15.40;99.90
64501;DHT22;50874;24.150;-110.320;2023-03-03T04:05:36;15.40;99.90
64501;DHT22;50874;24.150;-110.320;2023-03-03T04:08:02;15.30;99.90
64501;DHT22;50874;24.150;-110.320;2023-03-03T04:10:29;15.30;99.90
64501;DHT22;50874;24.150;-110.320;2023-03-03T04:12:57;15.30;99.90
64501;DHT22;50874;24.150;-110.320;2023-03-03T04:15:23;15.20;99.90
64501;DHT22;50874;24.150;-110.320;2023-03-03T04:17:50;15.20;99.90
64501;DHT22;50874;24.150;-110.320;2023-03-03T04:20:16;15.20;99.90
64501;DHT22;50874;24.150;-110.320;2023-03-03T04:22:43;15.20;99.90
64501;DHT22;50874;24.150;-110.320;2023-03-03T04:25:14;15.20;99.90
64501;DHT22;50874;24.150;-110.320;2023-03-03T04:27:41;15.10;99.90
64501;DHT22;50874;24.150;-110.320;2023-03-03T04:30:09;15.20;99.90
64501;DHT22;50874;24.150;-110.320;2023-03-03T04:32:35;15.10;99.90
64501;DHT22;50874;24.150;-110.320;2023-03-03T04:35:02;15.10;99.90
64501;DHT22;50874;24.150;-110.320;2023-03-03T04:37:28;15.10;99.90
64501;DHT22;50874;24.150;-110.320;2023-03-03T04:39:55;15.00;99.90
64501;DHT22;50874;24.150;-110.320;2023-03-03T04:42:21;15.00;99.90
64501;DHT22;50874;24.150;-110.320;2023-03-03T04:44:48;15.00;99.90
64501;DHT22;50874;24.150;-110.320;2023-03-03T04:47:14;15.00;99.90
64501;DHT22;50874;24.150;-110.320;2023-03-03T04:49:41;15.00;99.90
64501;DHT22;50874;24.150;-110.320;2023-03-03T04:52:07;15.00;99.90
64501;DHT22;50874;24.150;-110.320;2023-03-03T04:54:34;15.00;99.90
64501;DHT22;50874;24.150;-110.320;2023-03-03T04:57:00;14.90;99.90
64501;DHT22;50874;24.150;-110.320;2023-03-03T04:59:27;15.00;99.90
64501;DHT22;50874;24.150;-110.320;2023-03-03T05:01:53;14.90;99.90
64501;DHT22;50874;24.150;-110.320;2023-03-03T05:04:19;14.90;99.90
64501;DHT22;50874;24.150;-110.320;2023-03-03T05:06:46;14.90;99.90
64501;DHT22;50874;24.150;-110.320;2023-03-03T05:09:12;14.90;99.90
64501;DHT22;50874;24.150;-110.320;2023-03-03T05:11:39;14.80;99.90
64501;DHT22;50874;24.150;-110.320;2023-03-03T05:14:05;14.80;99.90
64501;DHT22;50874;24.150;-110.320;2023-03-03T05:16:35;14.80;99.90
64501;DHT22;50874;24.150;-110.320;2023-03-03T05:19:05;14.70;99.90
64501;DHT22;50874;24.150;-110.320;2023-03-03T05:21:31;14.70;99.90
64501;DHT22;50874;24.150;-110.320;2023-03-03T05:23:58;14.70;99.90
64501;DHT22;50874;24.150;-110.320;2023-03-03T05:26:24;14.70;99.90
64501;DHT22;50874;24.150;-110.320;2023-03-03T05:28:51;14.70;99.90
64501;DHT22;50874;24.150;-110.320;2023-03-03T05:31:17;14.70;99.90
64501;DHT22;50874;24.150;-110.320;2023-03-03T05:33:43;14.60;99.90
64501;DHT22;50874;24.150;-110.320;2023-03-03T05:36:10;14.60;99.90
64501;DHT22;50874;24.150;-110.320;2023-03-03T05:38:36;14.60;99.90
64501;DHT22;50874;24.150;-110.320;2023-03-03T05:41:03;14.60;99.90
64501;DHT22;50874;24.150;-110.320;2023-03-03T05:43:30;14.60;99.90
64501;DHT22;50874;24.150;-110.320;2023-03-03T05:45:58;14.60;99.90
64501;DHT22;50874;24.150;-110.320;2023-03-03T05:48:27;14.50;99.90
64501;DHT22;50874;24.150;-110.320;2023-03-03T05:50:56;14.50;99.90
64501;DHT22;50874;24.150;-110.320;2023-03-03T05:53:23;14.50;99.90
64501;DHT22;50874;24.150;-110.320;2023-03-03T05:55:49;14.40;99.90
64501;DHT22;50874;24.150;-110.320;2023-03-03T05:58:16;14.40;99.90
64501;DHT22;50874;24.150;-110.320;2023-03-03T06:00:42;14.40;99.90
64501;DHT22;50874;24.150;-110.320;2023-03-03T06:03:09;14.40;99.90
64501;DHT22;50874;24.150;-110.320;2023-03-03T06:05:35;14.40;99.90
64501;DHT22;50874;24.150;-110.320;2023-03-03T06:08:02;14.30;99.90
64501;DHT22;50874;24.150;-110.320;2023-03-03T06:10:29;14.30;99.90
64501;DHT22;50874;24.150;-110.320;2023-03-03T06:12:55;14.30;99.90
64501;DHT22;50874;24.150;-110.320;2023-03-03T06:15:23;14.30;99.90
64501;DHT22;50874;24.150;-110.320;2023-03-03T06:17:49;14.30;99.90
64501;DHT22;50874;24.150;-110.320;2023-03-03T06:20:16;14.20;99.90
64501;DHT22;50874;24.150;-110.320;2023-03-03T06:22:43;14.30;99.90
64501;DHT22;50874;24.150;-110.320;2023-03-03T06:25:09;14.30;99.90
64501;DHT22;50874;24.150;-110.320;2023-03-03T06:27:35;14.30;99.90
64501;DHT22;50874;24.150;-110.320;2023-03-03T06:30:03;14.30;99.90
64501;DHT22;50874;24.150;-110.320;2023-03-03T06:32:29;14.30;99.90
64501;DHT22;50874;24.150;-110.320;2023-03-03T06:34:56;14.30;99.90
64501;DHT22;50874;24.150;-110.320;2023-03-03T06:37:22;14.30;99.90
64501;DHT22;50874;24.150;-110.320;2023-03-03T06:39:48;14.30;99.90
64501;DHT22;50874;24.150;-110.320;2023-03-03T06:42:17;14.20;99.90
64501;DHT22;50874;24.150;-110.320;2023-03-03T06:44:44;14.30;99.90
64501;DHT22;50874;24.150;-110.320;2023-03-03T06:47:11;14.30;99.90
64501;DHT22;50874;24.150;-110.320;2023-03-03T06:49:37;14.30;99.90
64501;DHT22;50874;24.150;-110.320;2023-03-03T06:52:29;14.30;99.90
64501;DHT22;50874;24.150;-110.320;2023-03-03T06:54:58;14.30;99.90
64501;DHT22;50874;24.150;-110.320;2023-03-03T06:57:30;14.30;99.90
64501;DHT22;50874;24.150;-110.320;2023-03-03T07:00:18;14.30;99.90
64501;DHT22;50874;24.150;-110.320;2023-03-03T07:02:47;14.30;99.90
64501;DHT22;50874;24.150;-110.320;2023-03-03T07:05:19;14.30;99.90
64501;DHT22;50874;24.150;-110.320;2023-03-03T07:07:46;14.20;99.90
64501;DHT22;50874;24.150;-110.320;2023-03-03T07:10:33;14.30;99.90
64501;DHT22;50874;24.150;-110.320;2023-03-03T07:13:22;14.30;99.90
64501;DHT22;50874;24.150;-110.320;2023-03-03T07:15:53;14.30;99.90
64501;DHT22;50874;24.150;-110.320;2023-03-03T07:18:32;14.20;99.90
64501;DHT22;50874;24.150;-110.320;2023-03-03T07:21:05;14.20;99.90
64501;DHT22;50874;24.150;-110.320;2023-03-03T07:23:37;14.10;99.90
64501;DHT22;50874;24.150;-110.320;2023-03-03T07:26:16;14.10;99.90
64501;DHT22;50874;24.150;-110.320;2023-03-03T07:28:54;14.10;99.90
64501;DHT22;50874;24.150;-110.320;2023-03-03T07:31:36;14.10;99.90
64501;DHT22;50874;24.150;-110.320;2023-03-03T07:36:40;14.10;99.90
64501;DHT22;50874;24.150;-110.320;2023-03-03T07:39:35;14.10;99.90
64501;DHT22;50874;24.150;-110.320;2023-03-03T07:44:42;14.10;99.90
64501;DHT22;50874;24.150;-110.320;2023-03-03T07:49:59;14.00;99.90
64501;DHT22;50874;24.150;-110.320;2023-03-03T07:52:27;14.00;99.90
64501;DHT22;50874;24.150;-110.320;2023-03-03T07:54:56;14.10;99.90
64501;DHT22;50874;24.150;-110.320;2023-03-03T07:57:50;14.10;99.90
64501;DHT22;50874;24.150;-110.320;2023-03-03T08:03:09;14.10;99.90
64501;DHT22;50874;24.150;-110.320;2023-03-03T08:06:44;14.20;99.90
64501;DHT22;50874;24.150;-110.320;2023-03-03T08:08:52;14.10;99.90
64501;DHT22;50874;24.150;-110.320;2023-03-03T08:11:18;14.10;99.90
64501;DHT22;50874;24.150;-110.320;2023-03-03T08:13:45;14.10;99.90
64501;DHT22;50874;24.150;-110.320;2023-03-03T08:18:49;14.00;99.90
64501;DHT22;50874;24.150;-110.320;2023-03-03T08:21:18;14.10;99.90
64501;DHT22;50874;24.150;-110.320;2023-03-03T08:23:45;14.10;99.90
64501;DHT22;50874;24.150;-110.320;2023-03-03T08:26:14;14.00;99.90
64501;DHT22;50874;24.150;-110.320;2023-03-03T08:28:42;14.00;99.90
64501;DHT22;50874;24.150;-110.320;2023-03-03T08:31:08;14.00;99.90
64501;DHT22;50874;24.150;-110.320;2023-03-03T08:33:35;14.00;99.90
64501;DHT22;50874;24.150;-110.320;2023-03-03T08:36:01;14.00;99.90
64501;DHT22;50874;24.150;-110.320;2023-03-03T08:38:28;14.00;99.90
64501;DHT22;50874;24.150;-110.320;2023-03-03T08:40:54;14.00;99.90
64501;DHT22;50874;24.150;-110.320;2023-03-03T08:43:21;14.00;99.90
64501;DHT22;50874;24.150;-110.320;2023-03-03T08:45:51;14.00;99.90
64501;DHT22;50874;24.150;-110.320;2023-03-03T08:48:19;14.00;99.90
64501;DHT22;50874;24.150;-110.320;2023-03-03T08:50:46;14.00;99.90
64501;DHT22;50874;24.150;-110.320;2023-03-03T08:53:13;14.00;99.90
64501;DHT22;50874;24.150;-110.320;2023-03-03T08:55:41;14.00;99.90
64501;DHT22;50874;24.150;-110.320;2023-03-03T08:58:07;14.00;99.90
64501;DHT22;50874;24.150;-110.320;2023-03-03T09:00:34;14.10;99.90
64501;DHT22;50874;24.150;-110.320;2023-03-03T09:03:01;14.10;99.90
64501;DHT22;50874;24.150;-110.320;2023-03-03T09:05:27;14.20;99.90
64501;DHT22;50874;24.150;-110.320;2023-03-03T09:07:54;14.30;99.90
64501;DHT22;50874;24.150;-110.320;2023-03-03T09:10:23;14.20;99.90
64501;DHT22;50874;24.150;-110.320;2023-03-03T09:12:57;14.20;99.90
64501;DHT22;50874;24.150;-110.320;2023-03-03T09:15:34;14.20;99.90
64501;DHT22;50874;24.150;-110.320;2023-03-03T09:18:20;14.10;99.90
64501;DHT22;50874;24.150;-110.320;2023-03-03T09:20:54;14.20;99.90
64501;DHT22;50874;24.150;-110.320;2023-03-03T09:28:42;14.30;99.90
64501;DHT22;50874;24.150;-110.320;2023-03-03T09:31:24;14.30;99.90
64501;DHT22;50874;24.150;-110.320;2023-03-03T09:33:51;14.40;99.90
64501;DHT22;50874;24.150;-110.320;2023-03-03T09:36:29;14.30;99.90
64501;DHT22;50874;24.150;-110.320;2023-03-03T09:39:01;14.30;99.90
64501;DHT22;50874;24.150;-110.320;2023-03-03T09:53:06;14.10;99.90
64501;DHT22;50874;24.150;-110.320;2023-03-03T09:55:56;14.10;99.90
64501;DHT22;50874;24.150;-110.320;2023-03-03T10:15:15;14.00;99.90
64501;DHT22;50874;24.150;-110.320;2023-03-03T10:18:44;14.00;99.90
64501;DHT22;50874;24.150;-110.320;2023-03-03T10:24:03;13.90;99.90
64501;DHT22;50874;24.150;-110.320;2023-03-03T10:32:46;13.90;99.90
64501;DHT22;50874;24.150;-110.320;2023-03-03T10:35:44;13.80;99.90
64501;DHT22;50874;24.150;-110.320;2023-03-03T10:38:24;13.80;99.90
64501;DHT22;50874;24.150;-110.320;2023-03-03T10:44:07;13.80;99.90
64501;DHT22;50874;24.150;-110.320;2023-03-03T10:52:16;13.80;99.90
64501;DHT22;50874;24.150;-110.320;2023-03-03T10:55:07;13.80;99.90
64501;DHT22;50874;24.150;-110.320;2023-03-03T10:57:54;13.80;99.90
64501;DHT22;50874;24.150;-110.320;2023-03-03T11:00:30;13.80;99.90
64501;DHT22;50874;24.150;-110.320;2023-03-03T11:11:04;13.90;99.90
64501;DHT22;50874;24.150;-110.320;2023-03-03T11:16:18;13.80;99.90
64501;DHT22;50874;24.150;-110.320;2023-03-03T11:22:19;13.60;99.90
64501;DHT22;50874;24.150;-110.320;2023-03-03T11:25:21;13.50;99.90
64501;DHT22;50874;24.150;-110.320;2023-03-03T11:30:38;13.40;99.90
64501;DHT22;50874;24.150;-110.320;2023-03-03T11:33:16;13.50;99.90
64501;DHT22;50874;24.150;-110.320;2023-03-03T11:41:15;13.80;99.90
64501;DHT22;50874;24.150;-110.320;2023-03-03T11:43:52;13.80;99.90
64501;DHT22;50874;24.150;-110.320;2023-03-03T11:46:32;13.80;99.90
64501;DHT22;50874;24.150;-110.320;2023-03-03T11:49:36;13.70;99.90
64501;DHT22;50874;24.150;-110.320;2023-03-03T11:52:10;13.90;99.90
64501;DHT22;50874;24.150;-110.320;2023-03-03T11:58:07;13.70;99.90
64501;DHT22;50874;24.150;-110.320;2023-03-03T12:00:58;13.70;99.90
64501;DHT22;50874;24.150;-110.320;2023-03-03T12:09:12;13.60;99.90
64501;DHT22;50874;24.150;-110.320;2023-03-03T12:20:24;13.50;99.90
64501;DHT22;50874;24.150;-110.320;2023-03-03T12:23:11;13.50;99.90
64501;DHT22;50874;24.150;-110.320;2023-03-03T12:26:10;13.40;99.90
64501;DHT22;50874;24.150;-110.320;2023-03-03T12:28:45;13.40;99.90
64501;DHT22;50874;24.150;-110.320;2023-03-03T12:31:22;13.40;99.90
64501;DHT22;50874;24.150;-110.320;2023-03-03T12:33:59;13.40;99.90
64501;DHT22;50874;24.150;-110.320;2023-03-03T12:39:28;13.50;99.90
64501;DHT22;50874;24.150;-110.320;2023-03-03T12:47:41;13.40;99.90
64501;DHT22;50874;24.150;-110.320;2023-03-03T12:53:32;13.40;99.90
64501;DHT22;50874;24.150;-110.320;2023-03-03T12:56:07;13.40;99.90
64501;DHT22;50874;24.150;-110.320;2023-03-03T13:01:34;13.30;99.90
64501;DHT22;50874;24.150;-110.320;2023-03-03T13:10:26;13.50;99.90
64501;DHT22;50874;24.150;-110.320;2023-03-03T13:15:35;13.40;99.90
64501;DHT22;50874;24.150;-110.320;2023-03-03T13:18:24;13.40;99.90
64501;DHT22;50874;24.150;-110.320;2023-03-03T13:20:59;13.40;99.90
64501;DHT22;50874;24.150;-110.320;2023-03-03T13:26:25;13.40;99.90
64501;DHT22;50874;24.150;-110.320;2023-03-03T13:29:26;13.40;99.90
64501;DHT22;50874;24.150;-110.320;2023-03-03T13:32:07;13.30;99.90
64501;DHT22;50874;24.150;-110.320;2023-03-03T13:43:21;13.30;99.90
64501;DHT22;50874;24.150;-110.320;2023-03-03T13:50:55;13.20;99.90
64501;DHT22;50874;24.150;-110.320;2023-03-03T13:53:31;13.30;99.90
64501;DHT22;50874;24.150;-110.320;2023-03-03T13:56:10;13.30;99.90
64501;DHT22;50874;24.150;-110.320;2023-03-03T14:01:25;13.30;99.90
64501;DHT22;50874;24.150;-110.320;2023-03-03T14:04:03;13.30;99.90
64501;DHT22;50874;24.150;-110.320;2023-03-03T14:06:31;13.40;99.90
64501;DHT22;50874;24.150;-110.320;2023-03-03T14:15:15;13.60;99.90
64501;DHT22;50874;24.150;-110.320;2023-03-03T14:20:34;13.70;99.90
64501;DHT22;50874;24.150;-110.320;2023-03-03T14:23:12;13.80;99.90
64501;DHT22;50874;24.150;-110.320;2023-03-03T14:25:57;13.90;99.90
64501;DHT22;50874;24.150;-110.320;2023-03-03T14:28:26;14.00;99.90
64501;DHT22;50874;24.150;-110.320;2023-03-03T14:36:56;14.30;99.90
64501;DHT22;50874;24.150;-110.320;2023-03-03T14:39:35;14.50;99.90
64501;DHT22;50874;24.150;-110.320;2023-03-03T14:45:00;15.00;99.90
64501;DHT22;50874;24.150;-110.320;2023-03-03T14:47:29;15.20;99.90
64501;DHT22;50874;24.150;-110.320;2023-03-03T14:49:57;15.40;99.90
64501;DHT22;50874;24.150;-110.320;2023-03-03T14:52:27;15.50;99.90
64501;DHT22;50874;24.150;-110.320;2023-03-03T14:54:59;15.70;99.90
64501;DHT22;50874;24.150;-110.320;2023-03-03T15:00:31;15.90;99.90
64501;DHT22;50874;24.150;-110.320;2023-03-03T15:03:19;16.10;99.90
64501;DHT22;50874;24.150;-110.320;2023-03-03T15:05:50;16.30;99.90
64501;DHT22;50874;24.150;-110.320;2023-03-03T15:08:34;16.40;99.90
64501;DHT22;50874;24.150;-110.320;2023-03-03T15:11:29;16.50;99.90
64501;DHT22;50874;24.150;-110.320;2023-03-03T15:14:45;16.60;99.90
64501;DHT22;50874;24.150;-110.320;2023-03-03T15:17:26;16.80;99.90
64501;DHT22;50874;24.150;-110.320;2023-03-03T15:31:02;17.90;99.90
64501;DHT22;50874;24.150;-110.320;2023-03-03T15:36:36;18.10;99.90
64501;DHT22;50874;24.150;-110.320;2023-03-03T15:41:57;18.80;99.90
64501;DHT22;50874;24.150;-110.320;2023-03-03T15:44:37;19.10;99.90
64501;DHT22;50874;24.150;-110.320;2023-03-03T15:50:17;19.80;99.90
64501;DHT22;50874;24.150;-110.320;2023-03-03T16:02:34;20.50;99.90
64501;DHT22;50874;24.150;-110.320;2023-03-03T16:05:21;21.00;99.90
64501;DHT22;50874;24.150;-110.320;2023-03-03T16:08:15;20.50;99.90
64501;DHT22;50874;24.150;-110.320;2023-03-03T16:16:15;20.30;99.90
64501;DHT22;50874;24.150;-110.320;2023-03-03T16:19:17;20.70;99.90
64501;DHT22;50874;24.150;-110.320;2023-03-03T16:22:10;21.00;99.90
64501;DHT22;50874;24.150;-110.320;2023-03-03T16:30:30;21.50;99.90
64501;DHT22;50874;24.150;-110.320;2023-03-03T16:33:35;21.20;99.90
64501;DHT22;50874;24.150;-110.320;2023-03-03T16:36:17;21.90;99.90
64501;DHT22;50874;24.150;-110.320;2023-03-03T16:39:37;22.10;99.90
64501;DHT22;50874;24.150;-110.320;2023-03-03T16:44:14;22.40;99.90
64501;DHT22;50874;24.150;-110.320;2023-03-03T16:46:47;22.10;99.90
64501;DHT22;50874;24.150;-110.320;2023-03-03T16:52:53;21.70;99.90
64501;DHT22;50874;24.150;-110.320;2023-03-03T16:55:29;22.40;99.90
64501;DHT22;50874;24.150;-110.320;2023-03-03T17:37:33;23.90;98.20
64501;DHT22;50874;24.150;-110.320;2023-03-03T17:45:59;22.70;99.90
64501;DHT22;50874;24.150;-110.320;2023-03-03T17:48:40;23.80;99.20
64501;DHT22;50874;24.150;-110.320;2023-03-03T17:59:32;22.60;99.90
64501;DHT22;50874;24.150;-110.320;2023-03-03T18:07:48;24.00;97.60
64501;DHT22;50874;24.150;-110.320;2023-03-03T18:21:48;23.30;97.60
64501;DHT22;50874;24.150;-110.320;2023-03-03T18:24:38;23.30;98.90
64501;DHT22;50874;24.150;-110.320;2023-03-03T18:35:40;23.70;96.40
64501;DHT22;50874;24.150;-110.320;2023-03-03T18:38:29;24.40;94.60
64501;DHT22;50874;24.150;-110.320;2023-03-03T18:41:10;24.50;95.90
64501;DHT22;50874;24.150;-110.320;2023-03-03T18:49:15;25.70;92.90
64501;DHT22;50874;24.150;-110.320;2023-03-03T18:51:48;25.90;93.20
64501;DHT22;50874;24.150;-110.320;2023-03-03T18:54:24;25.40;94.30
64501;DHT22;50874;24.150;-110.320;2023-03-03T19:08:03;25.40;92.50
64501;DHT22;50874;24.150;-110.320;2023-03-03T19:10:49;25.20;91.20
64501;DHT22;50874;24.150;-110.320;2023-03-03T19:16:02;25.20;92.10
64501;DHT22;50874;24.150;-110.320;2023-03-03T19:18:59;26.30;90.90
64501;DHT22;50874;24.150;-110.320;2023-03-03T19:21:37;26.40;87.30
64501;DHT22;50874;24.150;-110.320;2023-03-03T19:24:23;26.10;84.00
64501;DHT22;50874;24.150;-110.320;2023-03-03T19:27:17;25.70;85.40
64501;DHT22;50874;24.150;-110.320;2023-03-03T19:32:34;24.90;89.50
64501;DHT22;50874;24.150;-110.320;2023-03-03T19:56:18;24.80;75.20
64501;DHT22;50874;24.150;-110.320;2023-03-03T20:14:51;25.40;77.40
64501;DHT22;50874;24.150;-110.320;2023-03-03T20:17:42;25.10;77.70
64501;DHT22;50874;24.150;-110.320;2023-03-03T20:25:35;24.40;80.50
64501;DHT22;50874;24.150;-110.320;2023-03-03T20:28:10;24.20;79.00
64501;DHT22;50874;24.150;-110.320;2023-03-03T20:33:28;24.20;78.90
64501;DHT22;50874;24.150;-110.320;2023-03-03T20:36:41;24.10;79.50
64501;DHT22;50874;24.150;-110.320;2023-03-03T20:49:32;23.60;78.50
64501;DHT22;50874;24.150;-110.320;2023-03-03T20:52:07;24.10;78.80
64501;DHT22;50874;24.150;-110.320;2023-03-03T20:57:43;23.90;77.10
64501;DHT22;50874;24.150;-110.320;2023-03-03T21:03:28;24.10;76.80
64501;DHT22;50874;24.150;-110.320;2023-03-03T21:06:12;23.60;78.50
64501;DHT22;50874;24.150;-110.320;2023-03-03T21:08:55;24.30;89.40
64501;DHT22;50874;24.150;-110.320;2023-03-03T21:13:58;25.10;87.90
64501;DHT22;50874;24.150;-110.320;2023-03-03T21:16:35;25.40;87.60
64501;DHT22;50874;24.150;-110.320;2023-03-03T21:19:06;25.40;87.00
64501;DHT22;50874;24.150;-110.320;2023-03-03T21:21:42;25.30;84.30
64501;DHT22;50874;24.150;-110.320;2023-03-03T21:24:12;24.40;87.00
64501;DHT22;50874;24.150;-110.320;2023-03-03T21:26:56;24.90;88.20
64501;DHT22;50874;24.150;-110.320;2023-03-03T21:29:26;24.80;88.60
64501;DHT22;50874;24.150;-110.320;2023-03-03T21:31:58;25.20;90.10
64501;DHT22;50874;24.150;-110.320;2023-03-03T21:34:30;24.20;86.80
64501;DHT22;50874;24.150;-110.320;2023-03-03T21:36:58;24.00;85.00
64501;DHT22;50874;24.150;-110.320;2023-03-03T21:42:11;24.10;87.10
64501;DHT22;50874;24.150;-110.320;2023-03-03T21:44:50;24.00;85.40
64501;DHT22;50874;24.150;-110.320;2023-03-03T21:47:22;24.00;84.60
64501;DHT22;50874;24.150;-110.320;2023-03-03T21:49:50;23.90;84.00
64501;DHT22;50874;24.150;-110.320;2023-03-03T21:52:18;24.00;85.60
64501;DHT22;50874;24.150;-110.320;2023-03-03T21:54:47;24.40;84.90
64501;DHT22;50874;24.150;-110.320;2023-03-03T21:57:14;24.40;84.10
64501;DHT22;50874;24.150;-110.320;2023-03-03T21:59:41;24.50;82.30